createdAt,value
2022-11-19T00:01:10.776Z,94340.75
2022-11-19T00:03:39.013Z,94350.06
2022-11-19T00:06:16.970Z,94354.13
2022-11-19T00:08:44.272Z,94339.88
2022-11-19T00:11:14.130Z,94337.16
2022-11-19T00:13:42.825Z,94335.09
2022-11-19T00:16:14.993Z,94331.19
2022-11-19T00:18:41.516Z,94327.06
2022-11-19T00:21:13.163Z,94315.19
2022-11-19T00:23:40.560Z,94322.22
2022-11-19T00:26:10.525Z,94323.41
2022-11-19T00:28:37.828Z,94324.56
2022-11-19T00:31:07.209Z,94325.03
2022-11-19T00:33:34.230Z,94325.56
2022-11-19T00:36:01.604Z,94325.28
2022-11-19T00:38:29.436Z,94329.41
2022-11-19T00:40:55.949Z,94321.13
2022-11-19T00:43:41.285Z,94328.97
2022-11-19T00:46:07.841Z,94322.56
2022-11-19T00:48:34.742Z,94323.75
2022-11-19T00:51:01.912Z,94328.00
2022-11-19T00:53:28.784Z,94330.69
2022-11-19T00:55:55.332Z,94330.34
2022-11-19T00:58:21.874Z,94331.03
2022-11-19T01:00:48.476Z,94331.38
2022-11-19T01:03:15.040Z,94337.03
2022-11-19T01:05:41.577Z,94335.41
2022-11-19T01:08:08.197Z,94331.44
2022-11-19T01:10:35.221Z,94325.28
2022-11-19T01:13:20.261Z,94329.69
2022-11-19T01:15:50.715Z,94331.16
2022-11-19T01:18:18.390Z,94334.19
2022-11-19T01:20:45.528Z,94337.56
2022-11-19T01:23:12.096Z,94332.09
2022-11-19T01:25:38.816Z,94336.84
2022-11-19T01:28:05.656Z,94342.13
2022-11-19T01:30:33.044Z,94340.34
2022-11-19T01:32:59.588Z,94339.13
2022-11-19T01:35:26.150Z,94341.38
2022-11-19T01:37:53.069Z,94339.84
2022-11-19T01:40:19.645Z,94338.75
2022-11-19T01:42:54.009Z,94340.47
2022-11-19T01:45:32.585Z,94348.69
2022-11-19T01:48:24.747Z,94342.38
2022-11-19T01:50:56.430Z,94340.84
2022-11-19T01:53:29.091Z,94340.84
2022-11-19T01:55:57.508Z,94345.09
2022-11-19T01:58:25.296Z,94348.81
2022-11-19T02:00:51.828Z,94348.53
2022-11-19T02:03:19.000Z,94353.31
2022-11-19T02:05:47.040Z,94348.91
2022-11-19T02:08:44.639Z,94353.41
2022-11-19T02:11:55.962Z,94348.16
2022-11-19T02:14:38.500Z,94352.66
2022-11-19T02:17:18.434Z,94350.78
2022-11-19T02:20:09.313Z,94353.31
2022-11-19T02:22:50.898Z,94345.38
2022-11-19T02:25:51.369Z,94354.41
2022-11-19T02:28:20.616Z,94358.47
2022-11-19T02:30:52.275Z,94357.75
2022-11-19T02:33:37.123Z,94355.28
2022-11-19T02:36:16.881Z,94352.88
2022-11-19T02:38:57.803Z,94359.81
2022-11-19T02:41:35.921Z,94354.66
2022-11-19T02:44:45.530Z,94352.88
2022-11-19T02:47:22.586Z,94354.75
2022-11-19T02:49:53.503Z,94357.19
2022-11-19T02:52:20.680Z,94360.19
2022-11-19T02:54:47.192Z,94354.56
2022-11-19T02:57:14.205Z,94354.59
2022-11-19T03:00:06.877Z,94359.28
2022-11-19T03:02:59.934Z,94363.97
2022-11-19T03:05:31.303Z,94364.06
2022-11-19T03:07:58.432Z,94367.41
2022-11-19T03:10:31.855Z,94379.34
2022-11-19T03:13:28.226Z,94378.63
2022-11-19T03:16:15.383Z,94381.06
2022-11-19T03:18:44.628Z,94384.66
2022-11-19T03:21:21.921Z,94385.66
2022-11-19T03:23:57.684Z,94386.69
2022-11-19T03:26:30.026Z,94388.47
2022-11-19T03:29:01.424Z,94395.31
2022-11-19T03:31:29.853Z,94391.53
2022-11-19T03:34:01.562Z,94391.28
2022-11-19T03:36:38.220Z,94389.66
2022-11-19T03:39:09.588Z,94388.91
2022-11-19T03:41:39.401Z,94392.34
2022-11-19T03:44:16.463Z,94391.81
2022-11-19T03:46:45.656Z,94396.63
2022-11-19T03:49:13.916Z,94397.16
2022-11-19T03:52:17.840Z,94396.63
2022-11-19T03:54:44.899Z,94392.09
2022-11-19T03:57:16.259Z,94392.28
2022-11-19T03:59:42.760Z,94395.31
2022-11-19T04:02:11.681Z,94400.69
2022-11-19T04:04:38.932Z,94398.88
2022-11-19T04:07:12.950Z,94396.34
2022-11-19T04:09:41.012Z,94396.34
2022-11-19T04:12:13.022Z,94391.53
2022-11-19T04:14:39.648Z,94393.63
2022-11-19T04:17:06.149Z,94399.59
2022-11-19T04:19:32.690Z,94397.88
2022-11-19T04:21:59.192Z,94412.06
2022-11-19T04:24:25.740Z,94403.06
2022-11-19T04:26:52.245Z,94401.81
2022-11-19T04:29:19.238Z,94398.22
2022-11-19T04:31:46.096Z,94404.84
2022-11-19T04:34:12.691Z,94400.47
2022-11-19T04:36:42.422Z,94396.91
2022-11-19T04:39:10.079Z,94402.00
2022-11-19T04:41:36.647Z,94400.91
2022-11-19T04:44:03.193Z,94403.69
2022-11-19T04:46:30.043Z,94404.88
2022-11-19T04:48:57.274Z,94404.25
2022-11-19T04:51:24.178Z,94403.09
2022-11-19T04:53:51.014Z,94410.19
2022-11-19T04:56:17.540Z,94408.53
2022-11-19T04:58:44.120Z,94410.00
2022-11-19T05:01:10.846Z,94412.97
2022-11-19T05:03:37.371Z,94415.78
2022-11-19T05:06:04.106Z,94412.31
2022-11-19T05:08:30.667Z,94416.41
2022-11-19T05:10:57.178Z,94422.97
2022-11-19T05:13:23.943Z,94420.72
2022-11-19T05:15:50.505Z,94432.56
2022-11-19T05:18:17.129Z,94424.22
2022-11-19T05:20:43.705Z,94434.47
2022-11-19T05:23:10.649Z,94436.84
2022-11-19T05:25:37.278Z,94432.63
2022-11-19T05:28:03.892Z,94434.13
2022-11-19T05:30:30.449Z,94432.81
2022-11-19T05:32:56.997Z,94436.31
2022-11-19T05:35:23.909Z,94432.63
2022-11-19T05:37:51.005Z,94440.97
2022-11-19T05:40:18.601Z,94434.63
2022-11-19T05:42:45.358Z,94429.03
2022-11-19T05:45:12.565Z,94430.50
2022-11-19T05:47:40.111Z,94434.91
2022-11-19T05:50:09.737Z,94428.59
2022-11-19T05:52:36.597Z,94432.19
2022-11-19T05:55:03.976Z,94426.56
2022-11-19T05:57:30.465Z,94433.50
2022-11-19T05:59:56.980Z,94431.56
2022-11-19T06:02:23.584Z,94429.97
2022-11-19T06:04:50.166Z,94435.75
2022-11-19T06:07:16.783Z,94437.69
2022-11-19T06:09:43.392Z,94441.81
2022-11-19T06:12:09.888Z,94434.00
2022-11-19T06:14:36.388Z,94437.88
2022-11-19T06:17:02.910Z,94439.00
2022-11-19T06:19:29.465Z,94441.00
2022-11-19T06:21:55.964Z,94437.59
2022-11-19T06:24:22.549Z,94443.19
2022-11-19T06:26:49.152Z,94437.91
2022-11-19T06:29:17.214Z,94429.66
2022-11-19T06:31:44.054Z,94438.75
2022-11-19T06:34:10.640Z,94443.22
2022-11-19T06:36:41.804Z,94445.00
2022-11-19T06:39:10.838Z,94445.78
2022-11-19T06:41:37.369Z,94435.47
2022-11-19T06:44:04.394Z,94440.34
2022-11-19T06:46:30.948Z,94448.28
2022-11-19T06:48:57.451Z,94454.53
2022-11-19T06:51:24.679Z,94455.75
2022-11-19T06:53:51.372Z,94453.06
2022-11-19T06:56:17.875Z,94459.22
2022-11-19T06:58:44.372Z,94457.13
2022-11-19T07:01:10.985Z,94468.56
2022-11-19T07:03:37.539Z,94467.75
2022-11-19T07:06:04.847Z,94471.06
2022-11-19T07:08:34.370Z,94474.16
2022-11-19T07:11:02.111Z,94474.66
2022-11-19T07:13:48.600Z,94474.66
2022-11-19T07:16:15.229Z,94471.81
2022-11-19T07:18:41.758Z,94477.19
2022-11-19T07:21:08.257Z,94470.66
2022-11-19T07:23:34.735Z,94474.09
2022-11-19T07:26:01.650Z,94478.44
2022-11-19T07:28:28.138Z,94485.75
2022-11-19T07:30:54.858Z,94486.25
2022-11-19T07:33:21.398Z,94486.59
2022-11-19T07:35:47.985Z,94489.94
2022-11-19T07:38:14.490Z,94491.31
2022-11-19T07:40:41.000Z,94496.31
2022-11-19T07:43:07.514Z,94497.41
2022-11-19T07:45:37.047Z,94497.59
2022-11-19T07:48:03.724Z,94494.78
2022-11-19T07:50:30.264Z,94501.97
2022-11-19T07:52:59.475Z,94499.41
2022-11-19T07:55:26.031Z,94498.44
2022-11-19T07:57:55.417Z,94500.22
2022-11-19T08:00:22.028Z,94497.69
2022-11-19T08:02:49.950Z,94488.94
2022-11-19T08:05:17.121Z,94502.44
2022-11-19T08:07:44.061Z,94490.41
2022-11-19T08:10:11.457Z,94492.69
2022-11-19T08:12:37.968Z,94499.16
2022-11-19T08:15:05.031Z,94503.19
2022-11-19T08:17:49.882Z,94505.09
2022-11-19T08:20:17.407Z,94503.28
2022-11-19T08:22:43.987Z,94503.72
2022-11-19T08:25:10.523Z,94504.63
2022-11-19T08:27:38.192Z,94506.72
2022-11-19T08:30:05.115Z,94508.19
2022-11-19T08:32:31.632Z,94495.72
2022-11-19T08:34:58.191Z,94500.03
2022-11-19T08:37:24.704Z,94505.06
2022-11-19T08:39:51.624Z,94500.50
2022-11-19T08:42:36.673Z,94507.53
2022-11-19T08:45:03.764Z,94504.59
2022-11-19T08:47:30.278Z,94501.66
2022-11-19T08:49:57.646Z,94505.09
2022-11-19T08:52:24.160Z,94504.31
2022-11-19T08:54:50.917Z,94499.91
2022-11-19T08:57:17.417Z,94501.34
2022-11-19T08:59:43.988Z,94503.72
2022-11-19T09:02:11.266Z,94511.88
2022-11-19T09:04:37.871Z,94506.84
2022-11-19T09:07:04.411Z,94507.84
2022-11-19T09:09:31.048Z,94510.03
2022-11-19T09:11:57.597Z,94502.31
2022-11-19T09:14:24.153Z,94501.66
2022-11-19T09:16:50.650Z,94506.16
2022-11-19T09:19:17.225Z,94504.63
2022-11-19T09:21:43.733Z,94511.03
2022-11-19T09:24:10.279Z,94503.25
2022-11-19T09:26:36.761Z,94512.47
2022-11-19T09:29:03.326Z,94514.47
2022-11-19T09:31:29.861Z,94520.19
2022-11-19T09:36:23.046Z,94533.53
2022-11-19T09:38:49.565Z,94541.72
2022-11-19T09:42:06.977Z,94540.56
2022-11-19T09:45:06.309Z,94545.59
2022-11-19T09:47:54.476Z,94544.19
2022-11-19T09:50:28.436Z,94549.28
2022-11-19T09:52:58.481Z,94545.28
2022-11-19T09:55:34.457Z,94555.25
2022-11-19T09:58:05.887Z,94546.31
2022-11-19T10:00:33.254Z,94545.66
2022-11-19T10:03:11.184Z,94552.41
2022-11-19T10:06:06.752Z,94557.13
2022-11-19T10:08:49.797Z,94547.13
2022-11-19T10:11:34.852Z,94548.06
2022-11-19T10:14:22.875Z,94547.28
2022-11-19T10:17:09.525Z,94554.47
2022-11-19T10:19:49.090Z,94550.38
2022-11-19T10:22:43.546Z,94539.47
2022-11-19T10:25:18.976Z,94547.94
2022-11-19T10:27:57.209Z,94543.25
2022-11-19T10:30:26.234Z,94547.34
2022-11-19T10:33:33.935Z,94548.69
2022-11-19T10:36:11.704Z,94542.78
2022-11-19T10:38:40.966Z,94551.28
2022-11-19T10:41:29.532Z,94536.19
2022-11-19T10:44:01.611Z,94543.09
2022-11-19T10:46:29.244Z,94542.63
2022-11-19T10:48:58.981Z,94539.63
2022-11-19T10:51:30.597Z,94540.16
2022-11-19T10:53:57.762Z,94541.59
2022-11-19T10:56:39.348Z,94536.97
2022-11-19T10:59:13.200Z,94528.72
2022-11-19T11:01:45.398Z,94529.47
2022-11-19T11:04:17.340Z,94528.25
2022-11-19T11:06:55.929Z,94525.72
2022-11-19T11:09:30.881Z,94516.31
2022-11-19T11:12:19.679Z,94514.13
2022-11-19T11:14:54.047Z,94517.16
2022-11-19T11:17:31.525Z,94510.97
2022-11-19T11:20:24.185Z,94500.88
2022-11-19T11:23:02.753Z,94503.91
2022-11-19T11:25:29.543Z,94497.34
2022-11-19T11:28:12.862Z,94498.31
2022-11-19T11:30:53.399Z,94499.56
2022-11-19T11:33:38.466Z,94510.38
2022-11-19T11:36:06.961Z,94504.22
2022-11-19T11:38:43.880Z,94504.47
2022-11-19T11:44:28.391Z,94499.66
2022-11-19T11:47:10.359Z,94499.06
2022-11-19T11:49:40.274Z,94493.28
2022-11-19T11:52:07.025Z,94483.78
2022-11-19T11:54:33.665Z,94483.94
2022-11-19T11:57:19.034Z,94478.72
2022-11-19T11:59:45.802Z,94475.75
2022-11-19T12:02:23.269Z,94481.38
2022-11-19T12:04:51.028Z,94484.75
2022-11-19T12:07:37.449Z,94473.03
2022-11-19T12:10:25.683Z,94477.69
2022-11-19T12:12:58.228Z,94470.31
2022-11-19T12:15:37.007Z,94477.25
2022-11-19T12:18:36.356Z,94475.22
2022-11-19T12:21:17.490Z,94471.88
2022-11-19T12:24:18.654Z,94468.06
2022-11-19T12:27:21.848Z,94473.50
2022-11-19T12:30:14.604Z,94473.94
2022-11-19T12:32:50.001Z,94481.97
2022-11-19T12:35:25.472Z,94481.09
2022-11-19T12:38:18.962Z,94485.38
2022-11-19T12:40:54.367Z,94478.28
2022-11-19T12:43:45.600Z,94480.66
2022-11-19T12:46:28.395Z,94485.59
2022-11-19T12:49:20.617Z,94497.63
2022-11-19T12:52:11.757Z,94490.56
2022-11-19T12:55:21.680Z,94485.25
2022-11-19T12:58:00.905Z,94485.50
2022-11-19T13:00:30.174Z,94483.41
2022-11-19T13:03:14.870Z,94481.78
2022-11-19T13:05:50.749Z,94484.19
2022-11-19T13:08:30.800Z,94481.56
2022-11-19T13:11:09.131Z,94472.81
2022-11-19T13:13:39.626Z,94479.88
2022-11-19T13:16:12.419Z,94479.72
2022-11-19T13:18:44.195Z,94489.06
2022-11-19T13:21:25.881Z,94488.41
2022-11-19T13:23:53.943Z,94477.03
2022-11-19T13:26:25.736Z,94479.97
2022-11-19T13:29:20.520Z,94474.38
2022-11-19T13:32:01.912Z,94481.06
2022-11-19T13:34:47.147Z,94479.34
2022-11-19T13:37:22.311Z,94477.47
2022-11-19T13:40:01.071Z,94475.31
2022-11-19T13:42:58.956Z,94469.88
2022-11-19T13:45:39.501Z,94470.69
2022-11-19T13:48:22.214Z,94464.63
2022-11-19T13:50:52.260Z,94472.09
2022-11-19T13:53:24.552Z,94464.06
2022-11-19T13:55:56.135Z,94464.94
2022-11-19T13:58:33.362Z,94470.75
2022-11-19T14:01:26.341Z,94470.88
2022-11-19T14:04:02.885Z,94476.72
2022-11-19T14:06:41.548Z,94479.22
2022-11-19T14:09:47.895Z,94473.03
2022-11-19T14:12:35.780Z,94482.69
2022-11-19T14:15:51.940Z,94470.31
2022-11-19T14:18:50.186Z,94470.97
2022-11-19T14:21:44.425Z,94470.91
2022-11-19T14:24:44.704Z,94474.59
2022-11-19T14:27:44.136Z,94468.00
2022-11-19T14:30:16.256Z,94465.66
2022-11-19T14:32:47.446Z,94466.50
2022-11-19T14:35:26.361Z,94466.66
2022-11-19T14:37:58.853Z,94466.75
2022-11-19T14:40:28.269Z,94472.53
2022-11-19T14:43:19.405Z,94468.66
2022-11-19T14:46:01.644Z,94470.97
2022-11-19T14:48:40.547Z,94464.50
2022-11-19T14:51:12.743Z,94465.13
2022-11-19T14:53:52.010Z,94464.63
2022-11-19T14:56:21.573Z,94466.31
2022-11-19T14:58:54.182Z,94474.38
2022-11-19T15:01:22.387Z,94472.59
2022-11-19T15:03:55.191Z,94467.63
2022-11-19T15:06:22.314Z,94475.59
2022-11-19T15:08:52.081Z,94476.13
2022-11-19T15:11:20.179Z,94479.84
2022-11-19T15:13:48.489Z,94483.31
2022-11-19T15:16:25.025Z,94487.41
2022-11-19T15:19:13.269Z,94485.56
2022-11-19T15:22:00.874Z,94485.03
2022-11-19T15:24:49.020Z,94491.59
2022-11-19T15:27:30.798Z,94494.34
2022-11-19T15:30:23.460Z,94499.25
2022-11-19T15:33:08.528Z,94498.53
2022-11-19T15:36:15.994Z,94502.13
2022-11-19T15:38:48.420Z,94499.66
2022-11-19T15:41:21.503Z,94502.94
2022-11-19T15:43:55.696Z,94513.19
2022-11-19T15:46:34.871Z,94519.22
2022-11-19T15:49:10.106Z,94518.31
2022-11-19T15:51:53.211Z,94524.13
2022-11-19T15:54:27.716Z,94523.94
2022-11-19T15:56:59.211Z,94528.13
2022-11-19T15:59:27.316Z,94528.13
2022-11-19T16:02:02.205Z,94532.66
2022-11-19T16:04:38.757Z,94533.41
2022-11-19T16:07:08.722Z,94529.13
2022-11-19T16:09:36.431Z,94533.66
2022-11-19T16:12:22.093Z,94534.75
2022-11-19T16:15:11.513Z,94534.25
2022-11-19T16:17:45.905Z,94541.16
2022-11-19T16:20:24.539Z,94542.97
2022-11-19T16:22:56.191Z,94541.22
2022-11-19T16:25:22.700Z,94549.75
2022-11-19T16:27:49.293Z,94540.81
2022-11-19T16:30:25.169Z,94539.88
2022-11-19T16:32:51.848Z,94545.34
2022-11-19T16:35:36.588Z,94546.09
2022-11-19T16:38:03.294Z,94555.53
2022-11-19T16:40:52.678Z,94556.47
2022-11-19T16:43:20.008Z,94555.78
2022-11-19T16:45:46.935Z,94563.88
2022-11-19T16:48:38.373Z,94571.78
2022-11-19T16:51:29.818Z,94559.91
2022-11-19T16:53:56.355Z,94566.66
2022-11-19T16:56:23.666Z,94569.91
2022-11-19T16:58:56.388Z,94564.38
2022-11-19T17:01:26.680Z,94568.41
2022-11-19T17:06:42.809Z,94558.25
2022-11-19T17:09:29.830Z,94563.16
2022-11-19T17:12:14.936Z,94563.34
2022-11-19T17:14:51.073Z,94565.84
2022-11-19T17:17:29.776Z,94565.03
2022-11-19T17:19:57.813Z,94562.94
2022-11-19T17:22:31.272Z,94572.00
2022-11-19T17:24:58.359Z,94572.91
2022-11-19T17:27:37.049Z,94568.66
2022-11-19T17:30:16.184Z,94573.63
2022-11-19T17:32:47.867Z,94577.06
2022-11-19T17:35:40.603Z,94576.69
2022-11-19T17:38:17.762Z,94579.13
2022-11-19T17:40:50.340Z,94580.41
2022-11-19T17:43:41.007Z,94581.69
2022-11-19T17:46:07.602Z,94589.47
2022-11-19T17:48:34.528Z,94587.03
2022-11-19T17:51:01.102Z,94599.56
2022-11-19T17:53:27.609Z,94612.34
2022-11-19T17:55:56.300Z,94609.72
2022-11-19T17:58:23.058Z,94612.28
2022-11-19T18:00:50.059Z,94609.72
2022-11-19T18:03:17.725Z,94607.47
2022-11-19T18:05:48.824Z,94618.59
2022-11-19T18:08:16.163Z,94626.94
2022-11-19T18:10:45.357Z,94619.31
2022-11-19T18:13:14.503Z,94624.56
2022-11-19T18:15:41.081Z,94626.19
2022-11-19T18:18:07.669Z,94630.19
2022-11-19T18:20:34.321Z,94630.19
2022-11-19T18:23:01.044Z,94632.97
2022-11-19T18:25:27.692Z,94633.31
2022-11-19T18:28:00.994Z,94631.88
2022-11-19T18:30:29.233Z,94632.28
2022-11-19T18:33:01.805Z,94631.66
2022-11-19T18:35:36.576Z,94636.88
2022-11-19T18:38:07.250Z,94628.66
2022-11-19T18:40:48.008Z,94628.94
2022-11-19T18:43:39.971Z,94635.34
2022-11-19T18:46:12.010Z,94629.38
2022-11-19T18:48:38.631Z,94633.66
2022-11-19T18:51:05.716Z,94633.84
2022-11-19T18:53:32.214Z,94625.63
2022-11-19T18:55:58.974Z,94620.69
2022-11-19T18:58:26.977Z,94623.84
2022-11-19T19:00:53.467Z,94630.00
2022-11-19T19:03:19.973Z,94628.31
2022-11-19T19:05:46.488Z,94625.28
2022-11-19T19:08:14.018Z,94626.69
2022-11-19T19:10:41.460Z,94629.03
2022-11-19T19:13:08.089Z,94626.47
2022-11-19T19:15:34.607Z,94630.03
2022-11-19T19:18:06.459Z,94630.34
2022-11-19T19:20:34.140Z,94631.22
2022-11-19T19:23:00.751Z,94631.41
2022-11-19T19:25:27.313Z,94635.59
2022-11-19T19:27:53.876Z,94624.78
2022-11-19T19:30:20.397Z,94625.94
2022-11-19T19:32:47.051Z,94629.09
2022-11-19T19:35:13.594Z,94631.19
2022-11-19T19:37:41.756Z,94633.47
2022-11-19T19:40:09.230Z,94634.75
2022-11-19T19:42:40.906Z,94632.59
2022-11-19T19:45:08.233Z,94641.63
2022-11-19T19:47:35.117Z,94642.00
2022-11-19T19:50:01.841Z,94639.72
2022-11-19T19:52:28.366Z,94639.22
2022-11-19T19:54:54.903Z,94645.53
2022-11-19T19:57:21.585Z,94649.53
2022-11-19T19:59:48.136Z,94648.03
2022-11-19T20:02:15.753Z,94647.91
2022-11-19T20:04:42.344Z,94646.84
2022-11-19T20:07:08.979Z,94651.22
2022-11-19T20:09:35.565Z,94652.88
2022-11-19T20:12:02.089Z,94648.22
2022-11-19T20:14:28.682Z,94649.97
2022-11-19T20:16:55.246Z,94656.06
2022-11-19T20:19:22.151Z,94647.03
2022-11-19T20:21:49.016Z,94658.16
2022-11-19T20:24:17.235Z,94651.66
2022-11-19T20:26:43.897Z,94650.59
2022-11-19T20:29:13.192Z,94659.81
2022-11-19T20:31:40.927Z,94661.38
2022-11-19T20:34:07.557Z,94651.28
2022-11-19T20:36:35.977Z,94646.59
2022-11-19T20:39:02.714Z,94650.19
2022-11-19T20:41:47.836Z,94647.03
2022-11-19T20:44:22.586Z,94647.03
2022-11-19T20:46:50.931Z,94655.47
2022-11-19T20:49:19.016Z,94658.09
2022-11-19T20:51:46.051Z,94654.16
2022-11-19T20:54:13.539Z,94650.19
2022-11-19T20:56:40.807Z,94649.31
2022-11-19T20:59:08.172Z,94657.13
2022-11-19T21:01:35.816Z,94649.22
2022-11-19T21:04:02.403Z,94652.28
2022-11-19T21:06:29.076Z,94650.69
2022-11-19T21:08:56.170Z,94645.91
2022-11-19T21:11:22.864Z,94652.94
2022-11-19T21:13:49.415Z,94655.91
2022-11-19T21:16:20.895Z,94652.72
2022-11-19T21:18:47.730Z,94651.28
2022-11-19T21:21:15.846Z,94655.81
2022-11-19T21:23:43.099Z,94656.59
2022-11-19T21:26:16.428Z,94646.63
2022-11-19T21:28:48.312Z,94651.16
2022-11-19T21:31:16.274Z,94656.16
2022-11-19T21:33:42.961Z,94655.06
2022-11-19T21:36:10.237Z,94653.72
2022-11-19T21:38:36.745Z,94652.34
2022-11-19T21:41:03.270Z,94657.06
2022-11-19T21:43:30.174Z,94651.69
2022-11-19T21:45:57.343Z,94658.00
2022-11-19T21:48:24.985Z,94653.28
2022-11-19T21:50:52.557Z,94653.13
2022-11-19T21:53:19.611Z,94652.28
2022-11-19T21:55:46.445Z,94643.47
2022-11-19T21:58:14.933Z,94639.72
2022-11-19T22:00:42.241Z,94648.22
2022-11-19T22:03:08.972Z,94646.00
2022-11-19T22:05:35.490Z,94652.34
2022-11-19T22:08:02.286Z,94647.47
2022-11-19T22:10:29.564Z,94643.97
2022-11-19T22:12:59.126Z,94648.06
2022-11-19T22:15:26.573Z,94654.03
2022-11-19T22:17:53.730Z,94638.75
2022-11-19T22:20:20.316Z,94648.03
2022-11-19T22:22:46.949Z,94651.25
2022-11-19T22:25:14.133Z,94653.31
2022-11-19T22:27:41.672Z,94653.41
2022-11-19T22:30:09.985Z,94647.91
2022-11-19T22:32:36.567Z,94652.53
2022-11-19T22:35:03.472Z,94648.78
2022-11-19T22:37:29.966Z,94656.47
2022-11-19T22:39:56.499Z,94656.97
2022-11-19T22:42:23.005Z,94655.53
2022-11-19T22:44:49.552Z,94659.19
2022-11-19T22:47:16.059Z,94667.81
2022-11-19T22:49:44.083Z,94665.81
2022-11-19T22:52:10.613Z,94669.66
2022-11-19T22:54:41.362Z,94673.03
2022-11-19T22:57:17.135Z,94675.50
2022-11-19T22:59:50.324Z,94673.88
2022-11-19T23:02:28.692Z,94669.13
2022-11-19T23:04:56.524Z,94679.91
2022-11-19T23:07:29.755Z,94672.28
2022-11-19T23:09:56.746Z,94667.66
2022-11-19T23:12:51.132Z,94670.81
2022-11-19T23:15:59.324Z,94667.81
2022-11-19T23:18:57.853Z,94670.88
2022-11-19T23:21:44.875Z,94675.47
2022-11-19T23:24:20.395Z,94669.19
2022-11-19T23:26:46.916Z,94675.19
2022-11-19T23:29:13.420Z,94668.00
2022-11-19T23:31:40.409Z,94675.22
2022-11-19T23:34:07.354Z,94668.41
2022-11-19T23:36:36.749Z,94676.16
2022-11-19T23:39:05.303Z,94669.88
2022-11-19T23:41:33.734Z,94673.44
2022-11-19T23:44:00.915Z,94670.84
2022-11-19T23:46:31.678Z,94669.91
2022-11-19T23:48:59.471Z,94666.56
2022-11-19T23:51:29.005Z,94665.38
2022-11-19T23:53:55.733Z,94663.25
2022-11-19T23:56:24.029Z,94676.47
2022-11-19T23:58:50.713Z,94670.09
